KESWICK RESERVOIR (KES)

Elevation: 596' · SACRAMENTO R basin · Operator: US Bureau of Reclamation

Provisional data, subject to change.
Query executed Friday at 9:11:04   clock

Select a sensor type for a plot of data.
Note: Reservoir Flows are daily averages.

Earlier

Date RES ELE    STORAGE    RES CHG    OUTFLOW    INFLOW   
 FEET   AF   AF   CFS   CFS  
04/30/2015 580.38 19743 -121 6680 6624
05/01/2015 581.15 20188 445 6686 6915
05/02/2015 579.20 19074 -1114 7097 6540
05/03/2015 579.59 19294 -- 7109 7225
05/04/2015 578.77 18835 -459 7103 6877
05/05/2015 580.49 19806 -- 7103 7599
05/06/2015 580.83 20002 196 7046 7151
05/07/2015 577.66 18225 -1777 7074 6184
05/08/2015 578.90 18907 682 7081 7430
05/09/2015 579.07 19001 94 7088 7139
05/10/2015 578.94 18929 -72 7086 7055
05/11/2015 580.57 19852 923 7083 7551
05/12/2015 580.10 19582 -270 7083 6950
05/13/2015 580.80 19985 403 7088 7292
05/14/2015 585.66 22921 2936 7122 8607
05/15/2015 579.82 19423 -3498 7200 5440
05/16/2015 578.58 18730 -693 7170 6823
05/17/2015 578.00 18410 -320 7140 6981
05/18/2015 578.39 18625 215 7134 7245
05/19/2015 579.91 19473 848 7168 7599
05/20/2015 577.27 18014 -1459 7162 6429
05/21/2015 578.99 18956 942 7142 7620
05/22/2015 581.13 20176 1220 7182 7802
05/23/2015 581.63 20469 293 7152 7303
05/24/2015 580.96 20077 -392 7103 6910
05/25/2015 580.61 19875 -202 7106 7008
05/26/2015 580.68 19916 41 7115 7142
05/27/2015 580.24 19662 -254 6916 6794
05/28/2015 582.46 20961 1299 6910 7571
05/29/2015 -- -- -- -- --

Later | Latest

Warning! This data is preliminary and subject to revision.

Show KES Map | Plot KES Data | 1 Month KES Data | Real-Time KES Data | KES Info